createdAt,value
2018-09-22T00:00:56.829Z,97045.77
2018-09-22T00:03:24.100Z,97055.95
2018-09-22T00:05:51.436Z,97059.78
2018-09-22T00:08:18.655Z,97065.02
2018-09-22T00:10:46.014Z,97053.25
2018-09-22T00:13:13.270Z,97058.12
2018-09-22T00:15:40.500Z,97063.34
2018-09-22T00:18:07.732Z,97068.02
2018-09-22T00:20:35.021Z,97064.74
2018-09-22T00:23:02.200Z,97060.91
2018-09-22T00:25:29.517Z,97072.88
2018-09-22T00:27:56.736Z,97078.20
2018-09-22T00:30:24.008Z,97082.03
2018-09-22T00:32:51.233Z,97083.27
2018-09-22T00:35:18.495Z,97088.03
2018-09-22T00:37:45.727Z,97076.46
2018-09-22T00:40:12.987Z,97067.03
2018-09-22T00:42:40.195Z,97074.14
2018-09-22T00:45:07.598Z,97067.27
2018-09-22T00:47:34.861Z,97083.10
2018-09-22T00:50:02.197Z,97075.27
2018-09-22T00:52:29.463Z,97070.98
2018-09-22T00:54:56.778Z,97071.83
2018-09-22T00:57:24.132Z,97082.63
2018-09-22T00:59:51.414Z,97091.50
2018-09-22T01:02:18.783Z,97100.73
2018-09-22T01:04:46.166Z,97100.36
2018-09-22T01:07:13.515Z,97112.33
2018-09-22T01:09:40.855Z,97109.88
2018-09-22T01:12:08.172Z,97126.58
2018-09-22T01:14:35.498Z,97128.94
2018-09-22T01:17:02.820Z,97135.47
2018-09-22T01:19:30.085Z,97140.49
2018-09-22T01:21:57.394Z,97138.45
2018-09-22T01:24:24.676Z,97138.09
2018-09-22T01:26:51.954Z,97153.11
2018-09-22T01:29:19.212Z,97153.84
2018-09-22T01:31:46.562Z,97143.59
2018-09-22T01:34:13.896Z,97146.20
2018-09-22T01:36:41.800Z,97150.02
2018-09-22T01:39:10.226Z,97148.42
2018-09-22T01:41:37.713Z,97148.82
2018-09-22T01:44:05.334Z,97148.41
2018-09-22T01:46:32.671Z,97149.44
2018-09-22T01:49:00.033Z,97152.98
2018-09-22T01:51:27.268Z,97157.10
2018-09-22T01:53:54.559Z,97151.68
2018-09-22T01:56:21.904Z,97147.38
2018-09-22T01:58:49.221Z,97136.39
2018-09-22T02:01:16.563Z,97145.42
2018-09-22T02:03:43.832Z,97141.14
2018-09-22T02:06:11.107Z,97144.41
2018-09-22T02:08:38.505Z,97145.52
2018-09-22T02:11:05.892Z,97150.73
2018-09-22T02:13:33.206Z,97145.34
2018-09-22T02:16:00.515Z,97127.23
2018-09-22T02:18:27.835Z,97128.55
2018-09-22T02:20:55.120Z,97129.02
2018-09-22T02:23:22.476Z,97131.34
2018-09-22T02:25:49.791Z,97110.18
2018-09-22T02:28:17.094Z,97131.54
2018-09-22T02:30:44.351Z,97130.98
2018-09-22T02:33:11.667Z,97142.73
2018-09-22T02:35:38.988Z,97145.72
2018-09-22T02:38:06.289Z,97151.68
2018-09-22T02:40:43.705Z,97149.48
2018-09-22T02:43:10.988Z,97154.70
2018-09-22T02:45:38.341Z,97164.50
2018-09-22T02:48:05.644Z,97178.94
2018-09-22T02:50:32.944Z,97167.19
2018-09-22T02:53:00.243Z,97135.84
2018-09-22T02:55:27.562Z,97147.03
2018-09-22T02:57:54.807Z,97158.75
2018-09-22T03:00:22.105Z,97154.45
2018-09-22T03:02:49.513Z,97158.00
2018-09-22T03:05:16.785Z,97158.56
2018-09-22T03:07:44.044Z,97151.77
2018-09-22T03:10:11.706Z,97155.39
2018-09-22T03:12:38.601Z,97162.48
2018-09-22T03:15:06.280Z,97162.27
2018-09-22T03:17:33.571Z,97157.98
2018-09-22T03:20:00.825Z,97170.58
2018-09-22T03:22:28.107Z,97163.96
2018-09-22T03:24:55.556Z,97165.11
2018-09-22T03:27:22.881Z,97166.95
2018-09-22T03:29:50.166Z,97168.36
2018-09-22T03:32:17.436Z,97167.86
2018-09-22T03:34:44.727Z,97169.16
2018-09-22T03:40:04.698Z,97191.92
2018-09-22T03:42:32.019Z,97197.14
2018-09-22T03:44:59.369Z,97193.31
2018-09-22T03:47:26.639Z,97187.50
2018-09-22T03:49:53.918Z,97188.88
2018-09-22T03:52:21.212Z,97192.21
2018-09-22T03:54:48.461Z,97191.58
2018-09-22T03:57:15.828Z,97187.55
2018-09-22T03:59:43.100Z,97181.33
2018-09-22T04:02:10.358Z,97182.26
2018-09-22T04:04:37.623Z,97165.75
2018-09-22T04:07:04.833Z,97155.16
2018-09-22T04:09:32.123Z,97155.30
2018-09-22T04:11:59.363Z,97157.48
2018-09-22T04:14:26.765Z,97165.59
2018-09-22T04:16:54.030Z,97169.69
2018-09-22T04:19:21.339Z,97160.38
2018-09-22T04:21:48.591Z,97156.56
2018-09-22T04:24:17.306Z,97153.22
2018-09-22T04:26:45.056Z,97153.41
2018-09-22T04:29:12.381Z,97150.64
2018-09-22T04:31:39.702Z,97152.03
2018-09-22T04:34:07.016Z,97166.57
2018-09-22T04:36:34.267Z,97173.81
2018-09-22T04:39:01.621Z,97179.19
2018-09-22T04:41:28.922Z,97184.89
2018-09-22T04:43:56.409Z,97184.03
2018-09-22T04:46:23.632Z,97195.97
2018-09-22T04:48:50.851Z,97190.93
2018-09-22T04:51:18.134Z,97186.51
2018-09-22T04:53:45.412Z,97196.95
2018-09-22T04:56:12.645Z,97199.05
2018-09-22T04:58:39.852Z,97202.22
2018-09-22T05:01:07.064Z,97197.72
2018-09-22T05:03:34.267Z,97200.33
2018-09-22T05:06:01.602Z,97187.90
2018-09-22T05:08:28.921Z,97195.17
2018-09-22T05:10:56.191Z,97190.03
2018-09-22T05:13:23.634Z,97193.73
2018-09-22T05:15:51.492Z,97187.03
2018-09-22T05:18:18.779Z,97192.20
2018-09-22T05:20:46.032Z,97200.03
2018-09-22T05:23:13.262Z,97199.62
2018-09-22T05:25:40.529Z,97204.28
2018-09-22T05:28:07.853Z,97206.81
2018-09-22T05:30:35.246Z,97202.56
2018-09-22T05:33:02.551Z,97203.67
2018-09-22T05:35:29.870Z,97212.20
2018-09-22T05:37:57.098Z,97216.41
2018-09-22T05:40:24.409Z,97219.02
2018-09-22T05:42:51.604Z,97225.97
2018-09-22T05:45:18.865Z,97221.96
2018-09-22T05:47:46.265Z,97232.62
2018-09-22T05:50:13.558Z,97236.38
2018-09-22T05:52:40.817Z,97239.98
2018-09-22T05:55:08.157Z,97233.66
2018-09-22T05:57:35.374Z,97232.20
2018-09-22T06:00:02.779Z,97237.70
2018-09-22T06:02:30.008Z,97236.98
2018-09-22T06:04:57.365Z,97233.42
2018-09-22T06:07:24.637Z,97233.08
2018-09-22T06:09:51.887Z,97227.89
2018-09-22T06:12:19.144Z,97224.26
2018-09-22T06:14:46.402Z,97232.96
2018-09-22T06:17:13.676Z,97228.02
2018-09-22T06:19:40.922Z,97233.55
2018-09-22T06:22:08.206Z,97234.67
2018-09-22T06:24:35.533Z,97240.84
2018-09-22T06:27:02.740Z,97243.60
2018-09-22T06:29:29.992Z,97245.03
2018-09-22T06:31:57.248Z,97249.98
2018-09-22T06:34:24.498Z,97267.27
2018-09-22T06:36:51.738Z,97276.02
2018-09-22T06:39:19.016Z,97251.09
2018-09-22T06:41:46.214Z,97286.20
2018-09-22T06:44:13.497Z,97279.16
2018-09-22T06:46:40.747Z,97286.28
2018-09-22T06:49:07.984Z,97278.44
2018-09-22T06:51:35.221Z,97278.36
2018-09-22T06:54:02.507Z,97275.46
2018-09-22T06:56:29.782Z,97272.64
2018-09-22T06:58:56.994Z,97280.66
2018-09-22T07:01:24.262Z,97286.39
2018-09-22T07:03:51.532Z,97290.30
2018-09-22T07:06:18.899Z,97294.92
2018-09-22T07:08:46.217Z,97301.81
2018-09-22T07:11:13.517Z,97295.04
2018-09-22T07:13:40.836Z,97282.81
2018-09-22T07:16:08.255Z,97284.79
2018-09-22T07:18:35.570Z,97285.44
2018-09-22T07:21:06.716Z,97287.27
2018-09-22T07:23:34.015Z,97274.66
2018-09-22T07:26:01.339Z,97273.09
2018-09-22T07:28:28.660Z,97270.36
2018-09-22T07:30:55.964Z,97274.27
2018-09-22T07:33:23.406Z,97272.23
2018-09-22T07:35:50.681Z,97266.75
2018-09-22T07:38:18.096Z,97256.10
2018-09-22T07:40:45.409Z,97264.80
2018-09-22T07:43:12.751Z,97267.64
2018-09-22T07:45:40.085Z,97268.54
2018-09-22T07:48:07.316Z,97272.25
2018-09-22T07:50:34.661Z,97263.55
2018-09-22T07:53:01.913Z,97258.59
2018-09-22T07:55:29.162Z,97256.22
2018-09-22T07:57:56.492Z,97259.38
2018-09-22T08:00:23.809Z,97253.11
2018-09-22T08:02:51.018Z,97244.91
2018-09-22T08:05:18.325Z,97247.46
2018-09-22T08:07:45.553Z,97243.68
2018-09-22T08:10:12.825Z,97248.70
2018-09-22T08:12:40.110Z,97249.08
2018-09-22T08:15:07.302Z,97242.73
2018-09-22T08:17:34.605Z,97238.08
2018-09-22T08:20:01.993Z,97240.30
2018-09-22T08:22:29.274Z,97232.25
2018-09-22T08:24:56.498Z,97238.58
2018-09-22T08:27:23.771Z,97248.28
2018-09-22T08:29:51.026Z,97255.27
2018-09-22T08:32:18.301Z,97254.45
2018-09-22T08:34:45.742Z,97252.07
2018-09-22T08:37:13.021Z,97251.98
2018-09-22T08:39:40.303Z,97249.33
2018-09-22T08:42:07.795Z,97254.02
2018-09-22T08:44:35.090Z,97256.38
2018-09-22T08:47:02.416Z,97249.70
2018-09-22T08:49:29.790Z,97257.98
2018-09-22T08:51:57.550Z,97256.50
2018-09-22T08:54:24.879Z,97257.81
2018-09-22T08:56:52.177Z,97259.70
2018-09-22T08:59:19.487Z,97265.42
2018-09-22T09:01:46.685Z,97259.45
2018-09-22T09:04:13.942Z,97267.55
2018-09-22T09:06:41.344Z,97269.09
2018-09-22T09:09:09.523Z,97229.17
2018-09-22T09:11:36.925Z,97262.54
2018-09-22T09:14:04.253Z,97264.37
2018-09-22T09:16:31.519Z,97262.98
2018-09-22T09:18:58.857Z,97264.37
2018-09-22T09:21:26.158Z,97282.02
2018-09-22T09:23:53.422Z,97276.50
2018-09-22T09:26:21.449Z,97282.30
2018-09-22T09:28:48.823Z,97277.20
2018-09-22T09:31:17.342Z,97273.20
2018-09-22T09:33:44.588Z,97277.61
2018-09-22T09:36:11.961Z,97278.30
2018-09-22T09:38:39.241Z,97280.30
2018-09-22T09:41:06.830Z,97283.98
2018-09-22T09:43:34.139Z,97275.74
2018-09-22T09:46:01.370Z,97276.13
2018-09-22T09:48:28.731Z,97256.27
2018-09-22T09:50:56.168Z,97246.86
2018-09-22T09:53:23.514Z,97241.30
2018-09-22T09:55:50.731Z,97231.05
2018-09-22T09:58:18.016Z,97227.59
2018-09-22T10:00:46.168Z,97215.68
2018-09-22T10:03:14.879Z,97214.61
2018-09-22T10:05:42.442Z,97213.55
2018-09-22T10:08:09.703Z,97202.83
2018-09-22T10:10:36.941Z,97207.06
2018-09-22T10:13:04.245Z,97203.64
2018-09-22T10:15:31.510Z,97201.20
2018-09-22T10:17:58.773Z,97198.00
2018-09-22T10:20:26.072Z,97196.87
2018-09-22T10:22:53.339Z,97199.11
2018-09-22T10:25:20.627Z,97185.96
2018-09-22T10:27:47.919Z,97184.09
2018-09-22T10:30:15.224Z,97178.44
2018-09-22T10:32:42.872Z,97169.69
2018-09-22T10:35:10.195Z,97181.30
2018-09-22T10:37:37.467Z,97187.53
2018-09-22T10:40:05.224Z,97188.08
2018-09-22T10:42:32.526Z,97176.41
2018-09-22T10:44:59.783Z,97174.22
2018-09-22T10:47:27.179Z,97167.81
2018-09-22T10:49:54.472Z,97159.69
2018-09-22T10:52:21.744Z,97163.74
2018-09-22T10:54:49.257Z,97156.09
2018-09-22T10:57:48.218Z,97158.48
2018-09-22T11:00:15.462Z,97165.59
2018-09-22T11:02:42.815Z,97169.76
2018-09-22T11:05:10.329Z,97168.80
2018-09-22T11:07:37.637Z,97173.66
2018-09-22T11:10:06.138Z,97167.13
2018-09-22T11:12:33.401Z,97155.11
2018-09-22T11:15:00.704Z,97146.66
2018-09-22T11:17:27.949Z,97146.38
2018-09-22T11:19:55.317Z,97139.59
2018-09-22T11:22:24.681Z,97136.65
2018-09-22T11:24:51.960Z,97145.22
2018-09-22T11:27:19.223Z,97139.95
2018-09-22T11:29:46.663Z,97136.59
2018-09-22T11:32:13.909Z,97119.43
2018-09-22T11:34:41.170Z,97100.52
2018-09-22T11:37:08.456Z,97098.28
2018-09-22T11:39:36.029Z,97087.03
2018-09-22T11:42:03.495Z,97086.08
2018-09-22T11:44:30.816Z,97087.80
2018-09-22T11:46:58.059Z,97073.63
2018-09-22T11:49:25.557Z,97074.05
2018-09-22T11:51:52.799Z,97073.64
2018-09-22T11:54:20.116Z,97068.84
2018-09-22T11:56:47.432Z,97066.08
2018-09-22T11:59:14.840Z,97070.26
2018-09-22T12:01:42.266Z,97086.12
2018-09-22T12:04:09.553Z,97086.55
2018-09-22T12:06:36.957Z,97081.86
2018-09-22T12:09:06.925Z,97086.33
2018-09-22T12:11:34.280Z,97061.23
2018-09-22T12:14:01.596Z,97091.96
2018-09-22T12:16:28.991Z,97069.94
2018-09-22T12:18:56.296Z,97065.19
2018-09-22T12:21:23.735Z,97076.84
2018-09-22T12:23:50.957Z,97077.03
2018-09-22T12:26:18.320Z,97064.73
2018-09-22T12:28:45.575Z,97057.03
2018-09-22T12:31:12.829Z,97057.68
2018-09-22T12:33:40.138Z,97062.76
2018-09-22T12:36:07.748Z,97055.77
2018-09-22T12:38:34.947Z,97049.72
2018-09-22T12:41:02.265Z,97033.39
2018-09-22T12:43:29.471Z,97038.22
2018-09-22T12:45:56.709Z,97035.08
2018-09-22T12:48:24.154Z,97042.57
2018-09-22T12:50:51.459Z,97048.92
2018-09-22T12:53:18.699Z,97040.84
2018-09-22T12:55:46.013Z,97038.45
2018-09-22T12:58:13.259Z,97029.50
2018-09-22T13:00:40.653Z,97019.61
2018-09-22T13:03:09.517Z,97008.45
2018-09-22T13:05:37.616Z,96999.78
2018-09-22T13:08:05.249Z,96987.77
2018-09-22T13:10:32.454Z,96994.30
2018-09-22T13:12:59.684Z,96983.89
2018-09-22T13:15:26.958Z,96979.25
2018-09-22T13:17:54.247Z,96975.89
2018-09-22T13:20:22.858Z,96989.96
2018-09-22T13:22:50.576Z,96988.38
2018-09-22T13:25:18.436Z,96991.75
2018-09-22T13:27:45.823Z,96996.23
2018-09-22T13:30:13.062Z,96996.23
2018-09-22T13:32:40.314Z,96996.73
2018-09-22T13:35:07.596Z,96998.23
2018-09-22T13:37:34.878Z,96994.52
2018-09-22T13:40:02.205Z,96988.93
2018-09-22T13:42:29.475Z,96952.36
2018-09-22T13:44:56.759Z,96987.12
2018-09-22T13:47:24.071Z,96973.78
2018-09-22T13:49:51.356Z,96973.81
2018-09-22T13:52:18.608Z,96969.34
2018-09-22T13:54:45.875Z,96979.41
2018-09-22T13:57:13.064Z,96983.64
2018-09-22T13:59:40.513Z,96986.56
2018-09-22T14:02:07.758Z,96977.63
2018-09-22T14:04:35.179Z,96985.12
2018-09-22T14:07:02.455Z,96987.62
2018-09-22T14:09:29.848Z,96980.61
2018-09-22T14:11:57.237Z,96986.03
2018-09-22T14:14:24.575Z,96979.38
2018-09-22T14:16:51.831Z,96982.94
2018-09-22T14:19:19.107Z,96989.66
2018-09-22T14:21:46.372Z,96987.08
2018-09-22T14:24:13.718Z,96975.21
2018-09-22T14:26:41.004Z,96972.08
2018-09-22T14:29:08.319Z,96959.16
2018-09-22T14:31:35.663Z,96949.84
2018-09-22T14:34:02.885Z,96916.86
2018-09-22T14:36:30.208Z,96945.05
2018-09-22T14:38:57.425Z,96941.08
2018-09-22T14:41:24.704Z,96934.77
2018-09-22T14:43:52.021Z,96934.57
2018-09-22T14:46:19.292Z,96949.50
2018-09-22T14:48:46.941Z,96960.87
2018-09-22T14:51:14.219Z,96967.70
2018-09-22T14:53:41.509Z,96959.92
2018-09-22T14:56:08.774Z,96956.34
2018-09-22T14:58:36.096Z,96955.47
2018-09-22T15:01:03.356Z,96942.98
2018-09-22T15:03:30.645Z,96954.75
2018-09-22T15:05:57.945Z,96943.75
2018-09-22T15:08:25.244Z,96935.35
2018-09-22T15:10:52.557Z,96925.54
2018-09-22T15:13:19.775Z,96918.18
2018-09-22T15:15:47.082Z,96911.95
2018-09-22T15:18:14.439Z,96900.43
2018-09-22T15:20:41.826Z,96911.27
2018-09-22T15:23:09.109Z,96922.30
2018-09-22T15:25:36.423Z,96938.18
2018-09-22T15:28:03.779Z,96937.06
2018-09-22T15:30:31.188Z,96938.94
2018-09-22T15:32:58.404Z,96949.47
2018-09-22T15:35:25.682Z,96954.77
2018-09-22T15:37:52.954Z,96946.88
2018-09-22T15:40:20.207Z,96943.63
2018-09-22T15:42:47.488Z,96925.61
2018-09-22T15:45:14.791Z,96924.16
2018-09-22T15:47:42.073Z,96924.27
2018-09-22T15:50:09.314Z,96921.54
2018-09-22T15:52:36.616Z,96923.09
2018-09-22T15:55:03.898Z,96918.44
2018-09-22T15:57:31.152Z,96910.83
2018-09-22T15:59:58.403Z,96914.03
2018-09-22T16:02:25.694Z,96917.88
2018-09-22T16:04:52.922Z,96914.90
2018-09-22T16:07:20.213Z,96911.22
2018-09-22T16:09:47.925Z,96906.47
2018-09-22T16:12:17.310Z,96900.91
2018-09-22T16:14:44.819Z,96896.16
2018-09-22T16:17:12.146Z,96890.58
2018-09-22T16:19:39.376Z,96886.02
2018-09-22T16:22:06.669Z,96898.05
2018-09-22T16:24:33.925Z,96900.84
2018-09-22T16:27:01.244Z,96902.16
2018-09-22T16:29:28.528Z,96903.31
2018-09-22T16:31:55.870Z,96905.32
2018-09-22T16:34:23.155Z,96909.27
2018-09-22T16:36:50.391Z,96893.58
2018-09-22T16:39:17.689Z,96884.26
2018-09-22T16:41:45.789Z,96886.42
2018-09-22T16:44:13.143Z,96880.83
2018-09-22T16:46:40.496Z,96876.02
2018-09-22T16:49:07.930Z,96882.73
2018-09-22T16:51:35.157Z,96882.53
2018-09-22T16:54:02.422Z,96883.97
2018-09-22T16:56:29.647Z,96889.47
2018-09-22T16:58:56.919Z,96902.82
2018-09-22T17:01:24.153Z,96904.30
2018-09-22T17:03:51.564Z,96900.67
2018-09-22T17:06:18.947Z,96895.48
2018-09-22T17:08:46.336Z,96903.66
2018-09-22T17:11:13.720Z,96912.59
2018-09-22T17:13:40.988Z,96909.73
2018-09-22T17:16:08.425Z,96911.44
2018-09-22T17:18:35.808Z,96913.91
2018-09-22T17:21:03.129Z,96906.13
2018-09-22T17:23:30.479Z,96902.46
2018-09-22T17:25:57.879Z,96902.31
2018-09-22T17:28:25.094Z,96907.58
2018-09-22T17:30:52.403Z,96913.77
2018-09-22T17:33:19.683Z,96909.52
2018-09-22T17:35:47.033Z,96905.81
2018-09-22T17:38:14.299Z,96916.92
2018-09-22T17:40:41.583Z,96922.37
2018-09-22T17:43:08.834Z,96914.08
2018-09-22T17:45:36.223Z,96920.42
2018-09-22T17:48:03.512Z,96931.33
2018-09-22T17:50:30.721Z,96930.27
2018-09-22T17:52:58.017Z,96928.34
2018-09-22T17:55:25.265Z,96923.34
2018-09-22T17:57:52.532Z,96918.78
2018-09-22T18:00:19.916Z,96915.25
2018-09-22T18:02:47.149Z,96907.22
2018-09-22T18:05:14.427Z,96909.99
2018-09-22T18:07:41.731Z,96909.23
2018-09-22T18:10:09.043Z,96917.13
2018-09-22T18:12:36.282Z,96919.64
2018-09-22T18:15:03.667Z,96912.63
2018-09-22T18:17:30.948Z,96908.30
2018-09-22T18:19:58.244Z,96910.95
2018-09-22T18:22:25.529Z,96922.80
2018-09-22T18:24:52.825Z,96915.74
2018-09-22T18:27:20.171Z,96906.78
2018-09-22T18:29:47.533Z,96909.66
2018-09-22T18:32:14.906Z,96920.39
2018-09-22T18:34:42.193Z,96932.92
2018-09-22T18:37:09.540Z,96923.73
2018-09-22T18:39:36.797Z,96928.67
2018-09-22T18:42:04.019Z,96918.19
2018-09-22T18:44:31.270Z,96914.48
2018-09-22T18:46:58.538Z,96921.17
2018-09-22T18:49:25.800Z,96932.62
2018-09-22T18:51:53.115Z,96926.31
2018-09-22T18:54:20.414Z,96933.72
2018-09-22T18:56:47.673Z,96931.91
2018-09-22T18:59:14.961Z,96935.77
2018-09-22T19:01:42.730Z,96934.22
2018-09-22T19:04:09.959Z,96928.94
2018-09-22T19:06:37.239Z,96919.40
2018-09-22T19:09:06.553Z,96925.13
2018-09-22T19:11:33.888Z,96932.41
2018-09-22T19:14:04.431Z,96921.08
2018-09-22T19:16:37.093Z,96931.84
2018-09-22T19:19:10.055Z,96918.12
2018-09-22T19:21:44.204Z,96915.60
2018-09-22T19:24:15.056Z,96909.87
2018-09-22T19:26:50.764Z,96913.66
2018-09-22T19:29:25.853Z,96908.91
2018-09-22T19:32:02.421Z,96912.84
2018-09-22T19:34:40.591Z,96909.39
2018-09-22T19:37:26.200Z,96911.43
2018-09-22T19:40:59.263Z,96922.52
2018-09-22T19:44:30.451Z,96924.05
2018-09-22T19:48:01.703Z,96910.58
2018-09-22T19:50:34.077Z,96924.41
2018-09-22T19:53:01.398Z,96924.08
2018-09-22T19:55:28.694Z,96920.69
2018-09-22T19:57:55.936Z,96928.93
2018-09-22T20:00:23.256Z,96926.03
2018-09-22T20:02:50.529Z,96927.89
2018-09-22T20:05:17.791Z,96914.94
2018-09-22T20:07:45.167Z,96919.39
2018-09-22T20:10:12.439Z,96915.89
2018-09-22T20:12:39.697Z,96911.88
2018-09-22T20:15:06.954Z,96909.16
2018-09-22T20:17:34.282Z,96910.19
2018-09-22T20:20:01.599Z,96913.77
2018-09-22T20:22:28.870Z,96920.22
2018-09-22T20:24:56.119Z,96912.35
2018-09-22T20:27:23.407Z,96906.50
2018-09-22T20:29:50.666Z,96910.92
2018-09-22T20:32:17.983Z,96901.77
2018-09-22T20:34:45.190Z,96914.04
2018-09-22T20:37:12.551Z,96909.14
2018-09-22T20:39:39.834Z,96906.52
2018-09-22T20:42:07.641Z,96913.91
2018-09-22T20:44:34.894Z,96910.92
2018-09-22T20:47:02.314Z,96915.36
2018-09-22T20:49:29.628Z,96912.48
2018-09-22T20:51:57.064Z,96924.05
2018-09-22T20:54:24.319Z,96927.34
2018-09-22T20:56:51.681Z,96912.56
2018-09-22T20:59:19.011Z,96904.03
2018-09-22T21:01:46.282Z,96909.08
2018-09-22T21:04:13.567Z,96899.00
2018-09-22T21:06:41.208Z,96900.89
2018-09-22T21:09:09.392Z,96897.38
2018-09-22T21:11:36.837Z,96906.09
2018-09-22T21:14:04.243Z,96909.69
2018-09-22T21:16:31.453Z,96911.52
2018-09-22T21:18:58.870Z,96909.60
2018-09-22T21:21:26.233Z,96902.64
2018-09-22T21:23:53.482Z,96896.31
2018-09-22T21:26:20.797Z,96890.38
2018-09-22T21:30:12.649Z,96898.63
2018-09-22T21:32:39.907Z,96898.81
2018-09-22T21:35:07.211Z,96897.23
2018-09-22T21:37:34.436Z,96904.38
2018-09-22T21:40:01.780Z,96897.41
2018-09-22T21:42:29.107Z,96907.78
2018-09-22T21:44:56.426Z,96907.03
2018-09-22T21:47:23.695Z,96899.23
2018-09-22T21:49:51.098Z,96897.77
2018-09-22T21:52:18.373Z,96897.84
2018-09-22T21:54:45.686Z,96911.91
2018-09-22T21:57:12.822Z,96913.39
2018-09-22T21:59:40.165Z,96918.52
2018-09-22T22:02:07.463Z,96917.27
2018-09-22T22:04:34.717Z,96918.33
2018-09-22T22:07:02.022Z,96910.94
2018-09-22T22:09:29.326Z,96912.97
2018-09-22T22:11:56.687Z,96898.13
2018-09-22T22:14:23.975Z,96896.09
2018-09-22T22:16:51.229Z,96898.59
2018-09-22T22:19:18.570Z,96895.25
2018-09-22T22:21:45.879Z,96888.30
2018-09-22T22:24:13.114Z,96893.63
2018-09-22T22:26:40.386Z,96879.56
2018-09-22T22:29:07.699Z,96892.91
2018-09-22T22:31:34.969Z,96892.06
2018-09-22T22:34:02.232Z,96898.59
2018-09-22T22:36:29.542Z,96898.02
2018-09-22T22:38:56.810Z,96905.36
2018-09-22T22:41:24.226Z,96894.67
2018-09-22T22:43:51.540Z,96890.98
2018-09-22T22:46:18.828Z,96889.61
2018-09-22T22:48:46.064Z,96889.66
2018-09-22T22:51:13.325Z,96882.07
2018-09-22T22:53:40.579Z,96885.27
2018-09-22T22:56:07.819Z,96879.45
2018-09-22T22:58:35.107Z,96873.17
2018-09-22T23:01:02.450Z,96881.58
2018-09-22T23:03:29.751Z,96870.30
2018-09-22T23:05:56.970Z,96868.41
2018-09-22T23:08:24.252Z,96865.95
2018-09-22T23:10:51.543Z,96862.75
2018-09-22T23:13:18.826Z,96861.80
2018-09-22T23:15:46.066Z,96857.74
2018-09-22T23:18:13.411Z,96844.77
2018-09-22T23:20:40.671Z,96848.00
2018-09-22T23:23:07.886Z,96846.43
2018-09-22T23:25:35.124Z,96848.69
2018-09-22T23:28:02.607Z,96845.84
2018-09-22T23:30:29.884Z,96846.03
2018-09-22T23:32:57.199Z,96860.55
2018-09-22T23:35:24.455Z,96851.31
2018-09-22T23:37:51.716Z,96849.08
2018-09-22T23:40:19.105Z,96849.88
2018-09-22T23:42:46.376Z,96855.48
2018-09-22T23:45:13.672Z,96858.02
2018-09-22T23:47:40.932Z,96844.76
2018-09-22T23:50:08.262Z,96849.62
2018-09-22T23:52:35.485Z,96839.63
2018-09-22T23:55:02.830Z,96843.45
2018-09-22T23:57:30.125Z,96840.30
2018-09-22T23:59:57.417Z,96833.86
